Time;durP1;ratioP1;P1;durP2;ratioP2;P2;SDS_P1;SDS_P2;PMS_P1;PMS_P2;Temp;Humidity;BMP_temperature;BMP_pressure;BME280_temperature;BME280_humidity;BME280_pressure;Samples;Min_cycle;Max_cycle;Signal;HPM_P1;HPM_P2
2023/03/13 00:01:41;;;;;;;9.90;7.30;;;;;;;-4.56;72.22;97641.33;110151;1242;69396;-67
2023/03/13 00:04:11;;;;;;;12.00;8.50;;;;;;;-4.55;76.40;97647.77;110156;1241;59265;-67
2023/03/13 00:06:41;;;;;;;10.60;6.90;;;;;;;-4.56;77.98;97650.00;110158;1244;59327;-67
2023/03/13 00:09:13;;;;;;;12.40;8.00;;;;;;;-4.60;81.11;97650.02;110119;1244;69739;-67
2023/03/13 00:11:44;;;;;;;13.20;8.20;;;;;;;-4.64;80.63;97648.35;110117;1244;69202;-67
2023/03/13 00:14:14;;;;;;;11.70;7.70;;;;;;;-4.71;78.03;97650.10;110114;1251;69269;-67
2023/03/13 00:16:45;;;;;;;10.70;7.40;;;;;;;-4.75;78.06;97655.92;110124;1241;58943;-67
2023/03/13 00:19:15;;;;;;;10.80;7.30;;;;;;;-4.79;78.31;97661.23;110124;1242;58941;-67
2023/03/13 00:21:47;;;;;;;10.10;6.80;;;;;;;-4.78;82.30;97655.61;110098;1241;69818;-67
2023/03/13 00:24:17;;;;;;;10.20;7.40;;;;;;;-4.78;80.91;97653.92;110163;1244;68795;-67
2023/03/13 00:26:48;;;;;;;8.90;5.60;;;;;;;-4.80;80.18;97651.56;110108;1242;69291;-67
2023/03/13 00:29:19;;;;;;;10.20;7.30;;;;;;;-4.85;78.37;97656.52;110124;1244;58887;-67
2023/03/13 00:31:49;;;;;;;13.30;9.00;;;;;;;-4.87;74.03;97656.03;110121;1241;58786;-67
2023/03/13 00:34:19;;;;;;;10.10;7.40;;;;;;;-4.86;77.30;97652.78;110147;1244;70601;-67
2023/03/13 00:36:49;;;;;;;9.20;6.60;;;;;;;-4.86;80.19;97659.42;110146;1241;68810;-67
2023/03/13 00:39:21;;;;;;;12.30;7.90;;;;;;;-4.90;78.71;97658.61;110114;1241;68368;-67
2023/03/13 00:41:50;;;;;;;9.70;7.40;;;;;;;-4.94;77.80;97659.14;110151;1244;58860;-67
2023/03/13 00:44:21;;;;;;;9.80;6.60;;;;;;;-4.99;76.71;97663.42;110168;1244;58853;-68
2023/03/13 00:46:51;;;;;;;12.60;7.60;;;;;;;-5.02;77.15;97663.28;110162;1245;71320;-67
2023/03/13 00:49:21;;;;;;;11.00;7.70;;;;;;;-5.03;77.63;97659.05;110215;1244;69372;-66
2023/03/13 00:51:51;;;;;;;9.60;5.60;;;;;;;-5.05;74.59;97659.20;110170;1243;68707;-67
2023/03/13 00:54:21;;;;;;;10.60;6.20;;;;;;;-5.07;74.69;97659.23;110106;1244;59288;-67
2023/03/13 00:56:51;;;;;;;10.20;6.80;;;;;;;-5.11;74.17;97658.92;110122;1245;58910;-67
2023/03/13 00:59:23;;;;;;;10.60;7.20;;;;;;;-5.14;74.55;97661.31;110104;1244;69745;-67
2023/03/13 01:01:55;;;;;;;17.60;10.30;;;;;;;-5.16;78.79;97662.69;110102;1242;69265;-67
2023/03/13 01:04:26;;;;;;;12.60;7.50;;;;;;;-5.17;82.01;97662.87;110097;1244;69301;-66
2023/03/13 01:06:58;;;;;;;13.00;8.30;;;;;;;-5.20;80.52;97664.59;110109;1244;58966;-67
2023/03/13 01:09:29;;;;;;;12.50;8.30;;;;;;;-5.20;84.89;97667.14;109753;1247;58864;-67
2023/03/13 01:12:00;;;;;;;12.40;7.90;;;;;;;-5.25;85.36;97667.16;110124;1242;69636;-67
2023/03/13 01:14:32;;;;;;;10.90;8.10;;;;;;;-5.30;83.29;97676.70;110105;1243;68674;-67
2023/03/13 01:17:02;;;;;;;9.60;6.10;;;;;;;-5.36;82.04;97675.05;110064;1244;69571;-67
2023/03/13 01:19:33;;;;;;;8.80;5.60;;;;;;;-5.40;81.86;97671.67;110021;1244;58914;-67
2023/03/13 01:22:03;;;;;;;10.70;8.20;;;;;;;-5.41;81.73;97669.80;110112;1244;58876;-67
2023/03/13 01:24:34;;;;;;;9.20;6.60;;;;;;;-5.44;81.03;97668.47;110105;1244;70617;-67
2023/03/13 01:27:04;;;;;;;10.00;7.40;;;;;;;-5.45;82.29;97675.11;110078;1241;68338;-67
2023/03/13 01:29:35;;;;;;;12.80;8.20;;;;;;;-5.48;81.41;97676.80;110154;1245;68837;-67
2023/03/13 01:32:06;;;;;;;15.30;10.70;;;;;;;-5.51;81.25;97677.34;110057;1241;58911;-67
2023/03/13 01:34:36;;;;;;;;;;;;;;;-5.52;80.56;97682.27;110111;1245;58830;-67
2023/03/13 01:37:07;;;;;;;8.80;6.50;;;;;;;-5.54;81.65;97682.11;110105;1241;70733;-67
2023/03/13 01:39:38;;;;;;;21.40;14.60;;;;;;;-5.54;79.65;97678.54;110162;1244;69358;-67
2023/03/13 01:42:10;;;;;;;25.80;18.30;;;;;;;-5.50;82.91;97678.70;110077;1245;69007;-67
2023/03/13 01:44:54;;;;;;;24.40;15.30;;;;;;;-5.46;80.51;97679.52;110093;1243;58977;-67
2023/03/13 01:47:28;;;;;;;12.30;9.00;;;;;;;-5.43;79.62;97678.98;109834;1245;58901;-67
2023/03/13 01:50:16;;;;;;;11.00;7.20;;;;;;;-5.43;76.81;97680.85;110083;1243;70958;-67
2023/03/13 01:52:59;;;;;;;11.40;7.60;;;;;;;-5.44;77.97;97679.34;110147;1243;67729;-67
2023/03/13 01:55:34;;;;;;;16.00;11.00;;;;;;;-5.46;82.64;97689.36;110132;1244;69154;-67
2023/03/13 01:58:08;;;;;;;14.80;10.20;;;;;;;-5.51;83.50;97699.59;110085;1245;58944;-67
2023/03/13 02:00:43;;;;;;;14.60;11.00;;;;;;;-5.57;82.06;97701.14;110042;1245;58882;-67
2023/03/13 02:03:17;;;;;;;11.70;8.80;;;;;;;-5.60;83.02;97700.64;110092;1245;70593;-67
2023/03/13 02:05:51;;;;;;;20.00;13.40;;;;;;;-5.64;82.20;97697.61;110036;1241;68375;-67
2023/03/13 02:08:51;;;;;;;19.20;13.00;;;;;;;-5.65;85.01;97700.66;110159;1244;68417;-67
2023/03/13 02:11:51;;;;;;;13.60;9.10;;;;;;;-5.66;85.96;97702.88;110121;1241;58903;-67
2023/03/13 02:14:27;;;;;;;11.10;7.90;;;;;;;-5.68;85.29;97704.92;110010;1243;58905;-67
2023/03/13 02:16:59;;;;;;;11.40;6.70;;;;;;;-5.71;84.41;97711.89;110162;1245;68879;-67
2023/03/13 02:19:35;;;;;;;13.40;8.30;;;;;;;-5.76;82.89;97718.70;110163;1245;67697;-67
2023/03/13 02:22:35;;;;;;;10.50;7.40;;;;;;;-5.77;86.30;97724.65;110184;1244;68501;-67
2023/03/13 02:25:24;;;;;;;9.40;6.20;;;;;;;-5.81;84.98;97732.98;110151;1244;58941;-67
2023/03/13 02:28:07;;;;;;;12.60;9.50;;;;;;;-5.83;85.68;97743.33;110136;1244;58802;-67
2023/03/13 02:30:42;;;;;;;14.70;10.40;;;;;;;-5.85;87.49;97747.93;110099;1243;70662;-67
2023/03/13 02:33:14;;;;;;;15.90;11.00;;;;;;;-5.86;85.51;97745.90;110148;1244;69230;-67
2023/03/13 02:35:49;;;;;;;14.80;10.70;;;;;;;-5.86;80.06;97744.36;110154;1245;68535;-67
2023/03/13 02:38:24;;;;;;;13.10;9.90;;;;;;;-5.82;81.14;97746.39;110112;1245;58867;-67
2023/03/13 02:40:58;;;;;;;16.10;10.20;;;;;;;-5.80;82.69;97755.38;110113;1245;58864;-67
2023/03/13 02:43:33;;;;;;;15.10;10.50;;;;;;;-5.80;82.23;97757.09;109778;1244;69831;-67
2023/03/13 02:46:19;;;;;;;12.90;10.00;;;;;;;-5.83;80.94;97759.13;110111;1245;69256;-67
2023/03/13 02:48:56;;;;;;;11.10;8.40;;;;;;;-5.86;82.22;97761.17;110138;1245;68791;-67
2023/03/13 02:51:41;;;;;;;11.20;8.00;;;;;;;-5.90;84.51;97759.31;110094;1245;58963;-67
2023/03/13 02:54:29;;;;;;;10.40;7.70;;;;;;;-5.94;85.25;97751.55;110121;1245;58898;-67
2023/03/13 02:57:03;;;;;;;11.50;7.40;;;;;;;-5.99;82.92;97747.83;110014;1244;69645;-67
2023/03/13 02:59:34;;;;;;;11.30;7.50;;;;;;;-5.98;79.98;97747.98;110065;1241;68478;-67
2023/03/13 03:02:06;;;;;;;9.20;7.70;;;;;;;-5.97;81.64;97755.27;110145;1241;69311;-67
2023/03/13 03:04:38;;;;;;;10.70;6.90;;;;;;;-5.96;80.46;97754.95;110113;1242;58999;-67
2023/03/13 03:07:11;;;;;;;8.70;6.80;;;;;;;-5.96;79.54;97754.29;110173;1245;58929;-66
2023/03/13 03:09:43;;;;;;;14.20;9.40;;;;;;;-5.95;81.17;97753.08;110147;1244;69656;-67
2023/03/13 03:12:19;;;;;;;9.00;7.80;;;;;;;-5.96;86.11;97749.67;110162;1244;69247;-67
2023/03/13 03:14:50;;;;;;;10.60;7.60;;;;;;;-5.95;87.39;97753.08;110143;1245;69281;-67
2023/03/13 03:17:20;;;;;;;13.80;10.10;;;;;;;-5.98;86.52;97743.58;110170;1244;58974;-67
2023/03/13 03:19:51;;;;;;;9.40;6.80;;;;;;;-5.99;88.00;97742.91;110139;1241;59012;-67
2023/03/13 03:22:21;;;;;;;13.00;9.30;;;;;;;-6.03;86.75;97747.66;110101;1245;71115;-68
2023/03/13 03:24:52;;;;;;;15.40;9.40;;;;;;;-6.03;89.37;97755.98;110119;1244;69213;-68
2023/03/13 03:27:22;;;;;;;;;;;;;;;-6.03;89.50;97758.52;110096;1245;69637;-68
2023/03/13 03:29:55;;;;;;;10.00;7.10;;;;;;;-6.05;88.30;97757.68;110131;1242;58902;-68
2023/03/13 03:32:26;;;;;;;;;;;;;;;-6.06;89.03;97752.75;110141;1242;58896;-68
2023/03/13 03:34:57;;;;;;;11.00;6.80;;;;;;;-6.07;87.92;97749.88;110159;1244;71164;-67
2023/03/13 03:37:27;;;;;;;10.80;7.50;;;;;;;-6.09;85.98;97754.29;110191;1245;68489;-68
2023/03/13 03:39:58;;;;;;;12.70;8.60;;;;;;;-6.11;86.49;97757.00;110124;1246;69890;-67
2023/03/13 03:42:30;;;;;;;15.10;9.10;;;;;;;-6.14;87.07;97763.98;110121;1245;58889;-67
2023/03/13 03:45:00;;;;;;;13.00;8.80;;;;;;;-6.17;88.96;97761.09;110165;1245;58964;-67
2023/03/13 03:47:31;;;;;;;12.30;9.40;;;;;;;-6.17;89.08;97768.73;110139;1245;70436;-67
2023/03/13 03:50:03;;;;;;;15.60;10.30;;;;;;;-6.17;89.95;97765.49;110114;1244;69238;-67
2023/03/13 03:52:37;;;;;;;16.80;10.60;;;;;;;-6.15;89.48;97766.52;110117;1243;69659;-67
2023/03/13 03:55:08;;;;;;;12.40;8.60;;;;;;;-6.13;89.24;97761.94;110121;1245;58908;-67
2023/03/13 03:57:38;;;;;;;17.10;10.50;;;;;;;-6.13;87.00;97756.17;110129;1245;58936;-67
2023/03/13 04:00:13;;;;;;;22.10;12.70;;;;;;;-6.12;82.92;97754.63;110136;1245;69950;-67
2023/03/13 04:02:46;;;;;;;16.90;11.40;;;;;;;-6.13;81.93;97753.96;110114;1242;67424;-67
2023/03/13 04:05:18;;;;;;;14.30;10.00;;;;;;;-6.16;83.24;97756.84;110103;1245;69913;-67
2023/03/13 04:07:48;;;;;;;13.00;9.20;;;;;;;-6.18;83.60;97757.87;110136;1243;58890;-67
2023/03/13 04:10:18;;;;;;;13.70;9.30;;;;;;;-6.20;81.91;97754.29;110106;1245;58907;-67
2023/03/13 04:12:49;;;;;;;14.30;10.50;;;;;;;-6.20;81.23;97756.16;110143;1245;69718;-67
2023/03/13 04:15:19;;;;;;;14.60;9.20;;;;;;;-6.19;84.95;97753.30;110110;1245;67557;-67
2023/03/13 04:17:49;;;;;;;11.50;8.90;;;;;;;-6.19;87.03;97756.36;110038;1245;69153;-67
2023/03/13 04:20:22;;;;;;;16.10;11.10;;;;;;;-6.19;88.51;97764.16;110125;1243;58854;-67
2023/03/13 04:22:53;;;;;;;17.50;12.20;;;;;;;-6.20;90.14;97762.95;110112;1245;58946;-67
2023/03/13 04:25:25;;;;;;;16.70;11.40;;;;;;;-6.21;89.78;97765.67;110083;1242;69618;-67
2023/03/13 04:27:58;;;;;;;14.50;10.80;;;;;;;-6.22;88.48;97767.54;110157;1245;69486;-67
2023/03/13 04:30:35;;;;;;;13.90;10.50;;;;;;;-6.22;88.52;97772.80;110109;1241;68281;-67
2023/03/13 04:33:27;;;;;;;15.10;10.30;;;;;;;-6.19;88.81;97770.08;110117;1244;58867;-67
2023/03/13 04:36:16;;;;;;;13.70;9.50;;;;;;;-6.14;89.11;97776.36;110139;1245;58834;-67
2023/03/13 04:38:55;;;;;;;11.70;9.20;;;;;;;-6.09;89.43;97780.25;110130;1244;70577;-67
2023/03/13 04:41:38;;;;;;;14.00;8.20;;;;;;;-6.04;88.72;97786.36;110106;1245;69184;-67
2023/03/13 04:44:11;;;;;;;12.90;8.60;;;;;;;-6.00;88.24;97781.27;110062;1244;69531;-67
2023/03/13 04:47:16;;;;;;;9.40;6.70;;;;;;;-5.93;87.56;97785.98;109977;1245;59006;-67
2023/03/13 04:50:07;;;;;;;12.30;7.50;;;;;;;-5.84;83.84;97792.06;110008;1245;58902;-67
2023/03/13 04:53:12;;;;;;;12.60;9.00;;;;;;;-5.73;82.84;97791.36;110059;1244;71564;-67
2023/03/13 04:56:05;;;;;;;12.50;8.80;;;;;;;-5.61;82.96;97794.90;109994;1245;69275;-67
2023/03/13 04:58:52;;;;;;;13.60;8.40;;;;;;;-5.52;83.29;97805.42;110117;1245;70235;-67
2023/03/13 05:02:00;;;;;;;14.90;9.50;;;;;;;-5.41;88.07;97813.19;109627;1248;58944;-67
2023/03/13 05:04:48;;;;;;;10.50;8.30;;;;;;;-5.35;86.52;97805.52;109745;1248;59365;-67
2023/03/13 05:07:28;;;;;;;10.70;7.80;;;;;;;-5.23;83.98;97811.93;110039;1245;70409;-67
2023/03/13 05:10:17;;;;;;;10.20;8.30;;;;;;;-5.02;83.30;97817.63;110159;1243;69804;-68
2023/03/13 05:13:10;;;;;;;13.50;9.70;;;;;;;-4.77;83.76;97812.39;110157;1242;69912;-67
2023/03/13 05:15:52;;;;;;;20.30;12.70;;;;;;;-4.56;83.93;97800.87;110153;1245;58928;-68
2023/03/13 05:18:40;;;;;;;27.70;18.20;;;;;;;-4.36;83.54;97802.61;110153;1244;58898;-68
2023/03/13 05:21:23;;;;;;;23.00;15.30;;;;;;;-4.19;83.22;97799.40;110163;1245;70926;-68
2023/03/13 05:24:11;;;;;;;21.10;17.20;;;;;;;-4.04;83.10;97798.09;110112;1244;69836;-68
2023/03/13 05:26:50;;;;;;;23.60;16.10;;;;;;;-3.91;84.01;97791.67;110079;1243;69893;-68
2023/03/13 05:29:38;;;;;;;16.40;13.40;;;;;;;-3.79;84.35;97791.40;110122;1244;58960;-68
2023/03/13 05:32:19;;;;;;;15.20;11.00;;;;;;;-3.68;84.09;97802.34;110155;1245;58879;-68
2023/03/13 05:34:52;;;;;;;17.40;11.70;;;;;;;-3.57;83.88;97810.92;110117;1244;70933;-68
2023/03/13 05:37:39;;;;;;;14.30;9.40;;;;;;;-3.44;83.92;97813.52;110096;1245;70141;-68
2023/03/13 05:40:20;;;;;;;13.50;10.30;;;;;;;-3.30;83.08;97810.64;110081;1244;69865;-68
2023/03/13 05:43:10;;;;;;;12.40;9.20;;;;;;;-3.18;82.50;97807.59;109961;1245;58869;-68
2023/03/13 05:46:02;;;;;;;12.10;8.10;;;;;;;-3.07;81.97;97812.92;109835;1245;58877;-68
2023/03/13 05:48:51;;;;;;;26.90;16.00;;;;;;;-2.96;81.55;97823.36;110097;1244;70550;-68
2023/03/13 05:51:37;;;;;;;34.60;19.60;;;;;;;-2.90;82.91;97832.83;110076;1245;69319;-67
2023/03/13 05:54:39;;;;;;;51.30;24.80;;;;;;;-2.78;82.43;97845.81;109851;1246;69449;-67
2023/03/13 05:57:36;;;;;;;42.60;23.30;;;;;;;-2.65;81.84;97845.48;110064;1245;58981;-68
2023/03/13 06:00:19;;;;;;;29.40;18.00;;;;;;;-2.51;80.97;97844.77;110098;1244;58817;-67
2023/03/13 06:03:03;;;;;;;23.30;14.00;;;;;;;-2.33;79.67;97835.82;110087;1241;71176;-68
2023/03/13 06:05:38;;;;;;;24.30;15.70;;;;;;;-2.10;78.42;97833.23;110091;1242;69687;-68
2023/03/13 06:08:18;;;;;;;20.60;15.20;;;;;;;-1.72;79.20;97834.30;110107;1249;69141;-67
2023/03/13 06:10:50;;;;;;;37.80;26.00;;;;;;;-1.24;77.64;97834.14;110066;1244;59258;-68
2023/03/13 06:13:20;;;;;;;37.30;26.20;;;;;;;-1.12;76.14;97842.13;110085;1246;58928;-68
2023/03/13 06:15:57;;;;;;;37.60;24.90;;;;;;;-1.15;75.29;97841.67;110071;1245;71226;-68
2023/03/13 06:18:52;;;;;;;;;;;;;;;-1.09;76.16;97839.83;110080;1244;69806;-67
2023/03/13 06:21:21;;;;;;;27.80;18.30;;;;;;;-0.86;75.36;97837.34;110118;1245;68838;-67
2023/03/13 06:23:50;;;;;;;21.70;15.50;;;;;;;-0.66;74.50;97837.41;110081;1245;58902;-68
2023/03/13 06:26:20;;;;;;;22.20;15.00;;;;;;;-0.40;72.37;97840.98;110107;1245;58881;-68
2023/03/13 06:28:49;;;;;;;;;;;;;;;-0.16;70.92;97849.34;110100;1244;70600;-67
2023/03/13 06:31:18;;;;;;;13.80;9.70;;;;;;;-0.05;68.51;97849.77;110084;1245;69833;-67
2023/03/13 06:33:51;;;;;;;12.70;9.30;;;;;;;0.02;65.65;97840.00;110074;1244;70309;-67
2023/03/13 06:36:22;;;;;;;22.20;14.40;;;;;;;0.27;66.71;97828.94;110081;1241;58861;-67
2023/03/13 06:38:51;;;;;;;23.30;17.00;;;;;;;0.45;69.18;97823.17;110089;1246;58834;-67
2023/03/13 06:41:20;;;;;;;25.20;19.00;;;;;;;0.40;69.36;97821.42;110117;1243;71127;-67
2023/03/13 06:43:49;;;;;;;71.50;38.20;;;;;;;0.15;69.91;97826.48;110104;1244;68721;-67
2023/03/13 06:46:20;;;;;;;31.90;21.40;;;;;;;0.07;68.89;97823.45;110112;1244;69284;-67
2023/03/13 06:48:50;;;;;;;36.30;26.70;;;;;;;0.05;69.20;97819.21;110095;1244;58924;-67
2023/03/13 06:51:21;;;;;;;23.20;17.50;;;;;;;-0.00;67.46;97818.98;110096;1244;58880;-67
2023/03/13 06:53:51;;;;;;;18.00;13.00;;;;;;;0.06;67.57;97816.95;110116;1245;69798;-67
2023/03/13 06:56:20;;;;;;;12.60;10.90;;;;;;;0.15;65.93;97814.66;110099;1244;69793;-67
2023/03/13 06:58:49;;;;;;;13.70;10.70;;;;;;;0.28;66.46;97811.61;110051;1245;69124;-67
2023/03/13 07:01:18;;;;;;;15.20;11.30;;;;;;;0.38;65.73;97818.02;110101;1242;58854;-67
2023/03/13 07:03:48;;;;;;;9.90;8.30;;;;;;;0.57;65.37;97827.33;110103;1245;58939;-67
2023/03/13 07:06:17;;;;;;;11.90;8.80;;;;;;;0.78;65.79;97826.58;110106;1244;70592;-67
2023/03/13 07:08:46;;;;;;;11.10;9.10;;;;;;;0.97;64.18;97829.15;110103;1244;69200;-69
2023/03/13 07:11:15;;;;;;;11.50;8.20;;;;;;;1.15;63.98;97834.99;110077;1244;69246;-67
2023/03/13 07:13:44;;;;;;;12.70;8.50;;;;;;;1.30;62.17;97831.98;110092;1244;58908;-66
2023/03/13 07:16:13;;;;;;;9.80;7.50;;;;;;;1.45;60.81;97828.80;110120;1244;58834;-66
2023/03/13 07:18:43;;;;;;;9.10;6.90;;;;;;;1.57;60.41;97834.98;110099;1244;71126;-66
2023/03/13 07:21:13;;;;;;;10.50;6.70;;;;;;;1.64;59.04;97835.10;110073;1245;69215;-68
2023/03/13 07:23:41;;;;;;;10.30;7.90;;;;;;;1.74;58.70;97837.91;110086;1241;70201;-69
2023/03/13 07:26:14;;;;;;;10.70;7.00;;;;;;;1.80;58.13;97836.84;110093;1242;58894;-66
2023/03/13 07:28:43;;;;;;;9.30;6.60;;;;;;;1.87;57.73;97835.94;110085;1245;58828;-67
2023/03/13 07:31:18;;;;;;;8.50;6.50;;;;;;;1.99;56.76;97830.07;110102;1242;70552;-67
2023/03/13 07:33:47;;;;;;;8.20;6.40;;;;;;;2.16;55.74;97826.94;110112;1244;68913;-67
2023/03/13 07:36:16;;;;;;;11.60;7.20;;;;;;;2.19;56.19;97825.99;110114;1242;69898;-67
2023/03/13 07:38:49;;;;;;;9.40;7.10;;;;;;;2.24;56.28;97821.19;110096;1245;58860;-67
2023/03/13 07:41:19;;;;;;;9.60;6.80;;;;;;;2.39;57.99;97828.59;110106;1245;58876;-67
2023/03/13 07:43:48;;;;;;;10.80;8.30;;;;;;;2.41;56.40;97831.80;110122;1241;70610;-67
2023/03/13 07:46:18;;;;;;;11.60;8.50;;;;;;;2.51;56.74;97839.02;110082;1243;68722;-67
2023/03/13 07:48:47;;;;;;;;;;;;;;;2.64;56.00;97839.11;110125;1245;69850;-67
2023/03/13 07:51:22;;;;;;;11.00;8.20;;;;;;;2.99;55.92;97836.51;110113;1243;58908;-68
2023/03/13 07:54:08;;;;;;;12.90;7.80;;;;;;;3.67;52.82;97836.21;110082;1246;58846;-67
2023/03/13 07:56:38;;;;;;;8.60;6.70;;;;;;;4.35;51.56;97832.15;110132;1244;70548;-67
2023/03/13 07:59:08;;;;;;;7.40;6.10;;;;;;;5.14;53.37;97820.13;110125;1244;69837;-67
2023/03/13 08:01:37;;;;;;;9.40;6.00;;;;;;;5.96;50.27;97816.38;110089;1241;68583;-67
2023/03/13 08:04:06;;;;;;;7.70;5.40;;;;;;;6.29;45.28;97815.09;110049;1245;58961;-67
2023/03/13 08:06:36;;;;;;;9.60;6.40;;;;;;;7.36;47.90;97813.64;110165;1245;58891;-68
2023/03/13 08:09:05;;;;;;;8.40;5.80;;;;;;;7.89;40.57;97814.05;110084;1243;70410;-68
2023/03/13 08:11:34;;;;;;;7.40;6.20;;;;;;;8.47;40.61;97816.30;110208;1246;70180;-67
2023/03/13 08:14:03;;;;;;;7.10;6.20;;;;;;;8.77;38.59;97814.05;110180;1245;69113;-68
2023/03/13 08:16:33;;;;;;;9.90;7.20;;;;;;;9.41;39.01;97813.49;110191;1245;58806;-69
2023/03/13 08:19:04;;;;;;;7.10;6.20;;;;;;;9.35;36.78;97816.14;110123;1245;58909;-68
2023/03/13 08:21:35;;;;;;;10.10;8.10;;;;;;;9.68;37.47;97818.61;110144;1241;70560;-68
2023/03/13 08:24:07;;;;;;;9.80;7.80;;;;;;;10.26;39.32;97820.52;110140;1245;69286;-68
2023/03/13 08:26:38;;;;;;;8.60;7.30;;;;;;;10.90;38.52;97823.60;110116;1246;69301;-68
2023/03/13 08:29:10;;;;;;;8.20;7.00;;;;;;;10.94;36.13;97822.98;110098;1245;58944;-68
2023/03/13 08:31:51;;;;;;;7.50;5.70;;;;;;;11.04;36.11;97821.21;110142;1246;58877;-68
2023/03/13 08:34:20;;;;;;;11.90;6.10;;;;;;;10.88;33.82;97817.76;110152;1243;71222;-68
2023/03/13 08:36:49;;;;;;;7.70;5.80;;;;;;;11.45;34.02;97815.42;110117;1243;68455;-68
2023/03/13 08:39:20;;;;;;;7.20;5.20;;;;;;;11.83;33.22;97814.70;110135;1245;68425;-67
2023/03/13 08:41:49;;;;;;;6.20;4.60;;;;;;;11.33;32.16;97822.00;110108;1245;58940;-69
2023/03/13 08:44:21;;;;;;;5.50;5.00;;;;;;;10.67;33.01;97822.67;110149;1245;58867;-67
2023/03/13 08:46:51;;;;;;;6.40;5.60;;;;;;;10.20;33.26;97823.45;110146;1245;69942;-67
2023/03/13 08:49:19;;;;;;;6.70;5.30;;;;;;;10.14;33.41;97828.20;110129;1245;69825;-68
2023/03/13 08:51:48;;;;;;;8.10;5.50;;;;;;;10.45;33.25;97831.67;110142;1245;69800;-68
2023/03/13 08:54:17;;;;;;;6.60;4.60;;;;;;;10.14;32.70;97829.45;110099;1245;58868;-68
2023/03/13 08:56:46;;;;;;;5.40;4.50;;;;;;;10.23;33.42;97825.21;110109;1246;58800;-68
2023/03/13 08:59:15;;;;;;;7.40;5.20;;;;;;;11.21;34.06;97821.66;110120;1245;68970;-68
2023/03/13 09:01:44;;;;;;;6.80;5.20;;;;;;;11.71;33.45;97826.73;110141;1245;69793;-68
2023/03/13 09:04:14;;;;;;;5.90;4.90;;;;;;;11.64;31.29;97824.94;110120;1245;69286;-68
2023/03/13 09:06:43;;;;;;;;;;;;;;;11.30;31.80;97821.58;110155;1245;58889;-68
2023/03/13 09:09:13;;;;;;;7.40;4.90;;;;;;;11.07;31.46;97816.84;110145;1245;58995;-68
2023/03/13 09:11:41;;;;;;;;;;;;;;;11.94;31.57;97818.11;110150;1246;70700;-68
2023/03/13 09:14:11;;;;;;;5.70;4.50;;;;;;;12.01;31.22;97815.06;110123;1244;69762;-68
2023/03/13 09:16:40;;;;;;;6.40;4.90;;;;;;;13.19;30.47;97811.78;110118;1242;69902;-68
2023/03/13 09:19:09;;;;;;;5.60;5.00;;;;;;;13.20;29.00;97807.52;110048;1246;58954;-68
2023/03/13 09:21:38;;;;;;;4.70;4.20;;;;;;;13.11;29.34;97803.80;110093;1245;58826;-67
2023/03/13 09:24:07;;;;;;;5.50;3.90;;;;;;;14.07;29.72;97800.43;110132;1245;70562;-68
2023/03/13 09:26:36;;;;;;;5.40;4.60;;;;;;;15.01;28.67;97804.10;110068;1241;69807;-68
2023/03/13 09:29:07;;;;;;;5.80;4.60;;;;;;;15.39;26.81;97806.65;110114;1246;69893;-67
2023/03/13 09:31:37;;;;;;;6.20;4.70;;;;;;;15.27;26.22;97808.71;110126;1245;58898;-67
2023/03/13 09:34:06;;;;;;;6.50;4.60;;;;;;;15.20;25.91;97802.15;110176;1243;58831;-68
2023/03/13 09:36:35;;;;;;;5.20;3.90;;;;;;;15.51;26.36;97797.17;110115;1245;70128;-68
2023/03/13 09:51:11;;;;;;;6.10;4.80;;;;;;;17.59;23.28;97792.73;107295;1273;609673;-68
2023/03/13 09:53:47;;;;;;;6.40;5.00;;;;;;;17.58;23.01;97781.86;108967;1257;269034;-68
2023/03/13 09:56:22;;;;;;;6.10;4.60;;;;;;;17.77;23.43;97779.27;110185;1244;57676;-67
2023/03/13 09:59:01;;;;;;;5.90;4.90;;;;;;;16.94;23.68;97783.64;110172;1244;68941;-68
2023/03/13 10:01:32;;;;;;;4.80;4.30;;;;;;;17.07;24.05;97774.67;110197;1244;69655;-66
2023/03/13 10:04:05;;;;;;;7.90;6.10;;;;;;;17.90;23.37;97771.09;110152;1241;68462;-67
2023/03/13 10:06:40;;;;;;;6.00;5.30;;;;;;;17.66;23.17;97771.27;110177;1244;57631;-67
2023/03/13 10:09:22;;;;;;;5.70;4.80;;;;;;;17.08;23.27;97763.95;110098;1244;57733;-67
2023/03/13 10:12:27;;;;;;;7.30;5.30;;;;;;;17.04;23.40;97763.47;109964;1244;67285;-67
2023/03/13 10:15:01;;;;;;;5.80;5.20;;;;;;;17.03;23.63;97761.19;109692;1248;69255;-69
2023/03/13 10:17:40;;;;;;;5.70;5.10;;;;;;;17.26;23.20;97760.05;110059;1243;69792;-67
2023/03/13 10:20:12;;;;;;;5.40;4.80;;;;;;;16.71;22.95;97754.86;110111;1244;58100;-66
2023/03/13 10:22:45;;;;;;;4.90;4.10;;;;;;;16.06;23.69;97752.46;110217;1240;58073;-68
2023/03/13 10:25:33;;;;;;;4.70;4.20;;;;;;;16.14;23.31;97744.53;110229;1244;70384;-66
2023/03/13 10:28:03;;;;;;;5.50;4.70;;;;;;;15.95;23.74;97742.59;110179;1244;69830;-66
2023/03/13 10:30:35;;;;;;;4.80;4.10;;;;;;;15.57;24.00;97741.16;110231;1244;69763;-69
2023/03/13 10:33:10;;;;;;;4.90;3.70;;;;;;;15.58;24.26;97736.90;110243;1242;58213;-66
2023/03/13 10:35:41;;;;;;;5.40;4.60;;;;;;;15.67;24.68;97731.70;110144;1242;58124;-68
2023/03/13 10:38:18;;;;;;;5.70;4.80;;;;;;;15.97;24.31;97725.52;110144;1243;70762;-66
2023/03/13 10:41:02;;;;;;;6.50;5.10;;;;;;;15.96;24.13;97720.32;110187;1240;69331;-66
2023/03/13 10:43:31;;;;;;;5.70;5.10;;;;;;;16.08;25.05;97707.11;110276;1245;69873;-68
2023/03/13 10:46:00;;;;;;;5.80;5.20;;;;;;;16.88;23.89;97698.19;110279;1244;58500;-67
2023/03/13 10:48:36;;;;;;;7.40;5.70;;;;;;;17.40;23.17;97696.24;110155;1244;58195;-68
2023/03/13 10:51:20;;;;;;;15.60;14.00;;;;;;;17.54;22.84;97693.00;110142;1243;68861;-69
2023/03/13 10:53:50;;;;;;;14.60;12.10;;;;;;;17.23;22.00;97689.00;110166;1244;69845;-67
2023/03/13 10:56:28;;;;;;;14.70;11.80;;;;;;;16.85;23.17;97686.51;110120;1242;69679;-68
2023/03/13 10:58:56;;;;;;;9.50;8.20;;;;;;;16.39;22.94;97683.54;110123;1248;58123;-68
2023/03/13 11:01:30;;;;;;;11.60;9.50;;;;;;;15.88;23.43;97685.41;110209;1241;58184;-67
2023/03/13 11:04:28;;;;;;;10.60;7.40;;;;;;;16.10;23.08;97680.40;110263;1241;70362;-68
2023/03/13 11:07:05;;;;;;;11.30;8.40;;;;;;;16.01;24.15;97676.24;110159;1243;69249;-68
2023/03/13 11:09:35;;;;;;;12.40;11.10;;;;;;;16.40;23.30;97670.11;110190;1244;68728;-70
2023/03/13 11:12:13;;;;;;;9.80;8.80;;;;;;;15.25;23.34;97674.95;110180;1243;58131;-68
2023/03/13 11:14:44;;;;;;;9.70;8.70;;;;;;;16.79;23.13;97667.48;110160;1243;58078;-68
2023/03/13 11:17:28;;;;;;;10.70;9.70;;;;;;;17.42;22.62;97669.09;110159;1244;69742;-68
2023/03/13 11:20:23;;;;;;;9.50;8.30;;;;;;;18.14;22.51;97663.08;110135;1243;69194;-69
2023/03/13 11:23:26;;;;;;;6.70;6.00;;;;;;;18.58;21.89;97655.68;110214;1244;69259;-68
2023/03/13 11:38:55;;;;;;;8.20;7.00;;;;;;;19.07;21.14;97647.85;107150;1271;609801;-67
2023/03/13 11:41:30;;;;;;;7.30;6.60;;;;;;;18.39;21.31;97644.35;108184;1254;1281994;-68
2023/03/13 11:44:11;;;;;;;8.40;6.80;;;;;;;17.80;21.50;97642.83;109311;1254;57650;-68
2023/03/13 11:47:07;;;;;;;7.90;6.80;;;;;;;18.09;22.24;97634.20;109314;1254;68850;-68
2023/03/13 11:49:58;;;;;;;7.80;6.90;;;;;;;18.12;22.01;97632.94;109329;1254;69233;-68
2023/03/13 11:52:32;;;;;;;4.30;3.90;;;;;;;18.62;21.36;97633.88;109244;1254;69309;-69
2023/03/13 11:55:31;;;;;;;4.90;4.40;;;;;;;18.04;21.83;97632.00;109308;1254;57703;-69
2023/03/13 11:58:24;;;;;;;5.80;4.20;;;;;;;17.99;21.81;97627.43;109302;1255;57684;-68
2023/03/13 12:01:03;;;;;;;5.60;4.60;;;;;;;18.59;21.67;97625.61;109937;1243;68011;-68
2023/03/13 12:03:56;;;;;;;5.10;4.30;;;;;;;18.82;21.30;97625.40;109913;1244;69795;-68
2023/03/13 12:06:53;;;;;;;4.60;4.00;;;;;;;18.46;21.05;97620.57;109900;1244;69265;-68
2023/03/13 12:10:01;;;;;;;4.60;3.90;;;;;;;17.96;21.72;97619.19;109990;1245;58159;-68
2023/03/13 12:12:50;;;;;;;4.70;4.10;;;;;;;19.03;21.24;97621.20;109878;1245;58140;-68
2023/03/13 12:15:39;;;;;;;5.30;4.70;;;;;;;19.79;20.53;97614.65;109772;1244;70425;-67
2023/03/13 12:18:21;;;;;;;5.30;4.20;;;;;;;19.81;20.20;97618.66;109841;1245;68552;-68
2023/03/13 12:20:56;;;;;;;5.80;3.90;;;;;;;20.07;19.84;97614.07;109821;1245;69887;-68
2023/03/13 12:23:31;;;;;;;5.40;4.40;;;;;;;20.35;19.75;97611.63;109834;1245;58153;-68
2023/03/13 12:26:12;;;;;;;5.50;4.90;;;;;;;20.36;19.56;97606.67;109848;1245;58134;-70